sensor_id;sensor_type;location;lat;lon;timestamp;pressure;altitude;pressure_sealevel;temperature;humidity
77685;BME280;66844;46.092;18.268;2023-11-21T00:00:21;98842.38;;;9.29;97.49
77685;BME280;66844;46.092;18.268;2023-11-21T00:00:53;98831.03;;;9.27;97.73
77685;BME280;66844;46.092;18.268;2023-11-21T00:01:25;98831.84;;;9.27;97.38
77685;BME280;66844;46.092;18.268;2023-11-21T00:01:58;98832.34;;;9.34;96.95
77685;BME280;66844;46.092;18.268;2023-11-21T00:02:30;98839.34;;;9.35;96.81
77685;BME280;66844;46.092;18.268;2023-11-21T00:03:02;98834.88;;;9.35;96.90
77685;BME280;66844;46.092;18.268;2023-11-21T00:03:35;98824.06;;;9.38;96.16
77685;BME280;66844;46.092;18.268;2023-11-21T00:04:08;98834.88;;;9.35;96.63
77685;BME280;66844;46.092;18.268;2023-11-21T00:04:40;98830.44;;;9.36;96.61
77685;BME280;66844;46.092;18.268;2023-11-21T00:05:13;98825.97;;;9.36;96.42
77685;BME280;66844;46.092;18.268;2023-11-21T00:05:46;98831.09;;;9.39;96.13
77685;BME280;66844;46.092;18.268;2023-11-21T00:06:18;98825.91;;;9.38;96.28
77685;BME280;66844;46.092;18.268;2023-11-21T00:06:51;98827.50;;;9.40;96.07
77685;BME280;66844;46.092;18.268;2023-11-21T00:07:22;98829.94;;;9.43;95.65
77685;BME280;66844;46.092;18.268;2023-11-21T00:07:55;98831.53;;;9.46;95.28
77685;BME280;66844;46.092;18.268;2023-11-21T00:08:28;98830.59;;;9.47;95.47
77685;BME280;66844;46.092;18.268;2023-11-21T00:08:59;98828.06;;;9.45;95.38
77685;BME280;66844;46.092;18.268;2023-11-21T00:09:32;98823.03;;;9.41;96.20
77685;BME280;66844;46.092;18.268;2023-11-21T00:10:04;98827.56;;;9.39;96.11
77685;BME280;66844;46.092;18.268;2023-11-21T00:10:37;98825.78;;;9.39;96.38
77685;BME280;66844;46.092;18.268;2023-11-21T00:11:10;98817.72;;;9.41;96.36
77685;BME280;66844;46.092;18.268;2023-11-21T00:11:42;98828.16;;;9.44;95.84
77685;BME280;66844;46.092;18.268;2023-11-21T00:12:15;98823.78;;;9.43;95.97
77685;BME280;66844;46.092;18.268;2023-11-21T00:12:47;98825.59;;;9.42;95.84
77685;BME280;66844;46.092;18.268;2023-11-21T00:13:20;98818.38;;;9.44;95.77
77685;BME280;66844;46.092;18.268;2023-11-21T00:13:52;98833.38;;;9.45;95.75
77685;BME280;66844;46.092;18.268;2023-11-21T00:14:24;98823.50;;;9.47;95.87
77685;BME280;66844;46.092;18.268;2023-11-21T00:14:57;98822.75;;;9.45;95.79
77685;BME280;66844;46.092;18.268;2023-11-21T00:15:29;98823.69;;;9.44;96.23
77685;BME280;66844;46.092;18.268;2023-11-21T00:16:01;98824.94;;;9.39;96.06
77685;BME280;66844;46.092;18.268;2023-11-21T00:16:33;98828.44;;;9.39;96.47
77685;BME280;66844;46.092;18.268;2023-11-21T00:17:06;98822.47;;;9.36;96.54
77685;BME280;66844;46.092;18.268;2023-11-21T00:17:38;98825.13;;;9.36;96.61
77685;BME280;66844;46.092;18.268;2023-11-21T00:18:11;98833.09;;;9.36;96.95
77685;BME280;66844;46.092;18.268;2023-11-21T00:18:43;98824.38;;;9.34;96.75
77685;BME280;66844;46.092;18.268;2023-11-21T00:19:15;98827.03;;;9.34;97.14
77685;BME280;66844;46.092;18.268;2023-11-21T00:19:48;98825.97;;;9.36;96.72
77685;BME280;66844;46.092;18.268;2023-11-21T00:20:20;98830.34;;;9.37;96.84
77685;BME280;66844;46.092;18.268;2023-11-21T00:20:52;98826.84;;;9.37;97.13
77685;BME280;66844;46.092;18.268;2023-11-21T00:21:24;98830.16;;;9.40;97.11
77685;BME280;66844;46.092;18.268;2023-11-21T00:21:56;98829.28;;;9.40;96.85
77685;BME280;66844;46.092;18.268;2023-11-21T00:22:29;98830.34;;;9.37;97.01
77685;BME280;66844;46.092;18.268;2023-11-21T00:23:01;98822.19;;;9.40;97.03
77685;BME280;66844;46.092;18.268;2023-11-21T00:23:34;98827.38;;;9.42;96.94
77685;BME280;66844;46.092;18.268;2023-11-21T00:24:06;98823.91;;;9.41;96.87
77685;BME280;66844;46.092;18.268;2023-11-21T00:24:39;98829.00;;;9.44;97.07
77685;BME280;66844;46.092;18.268;2023-11-21T00:25:11;98823.69;;;9.44;97.04
77685;BME280;66844;46.092;18.268;2023-11-21T00:25:44;98830.53;;;9.48;97.09
77685;BME280;66844;46.092;18.268;2023-11-21T00:26:16;98829.47;;;9.51;97.23
77685;BME280;66844;46.092;18.268;2023-11-21T00:26:48;98827.66;;;9.51;97.63
77685;BME280;66844;46.092;18.268;2023-11-21T00:27:20;98830.31;;;9.51;97.64
77685;BME280;66844;46.092;18.268;2023-11-21T00:27:52;98831.19;;;9.52;98.17
77685;BME280;66844;46.092;18.268;2023-11-21T00:28:24;98825.00;;;9.51;98.03
77685;BME280;66844;46.092;18.268;2023-11-21T00:28:56;98832.69;;;9.56;98.20
77685;BME280;66844;46.092;18.268;2023-11-21T00:29:28;98827.25;;;9.57;98.37
77685;BME280;66844;46.092;18.268;2023-11-21T00:30:00;98825.25;;;9.61;98.00
77685;BME280;66844;46.092;18.268;2023-11-21T00:30:32;98830.47;;;9.62;98.18
77685;BME280;66844;46.092;18.268;2023-11-21T00:31:05;98834.66;;;9.66;98.08
77685;BME280;66844;46.092;18.268;2023-11-21T00:31:37;98833.72;;;9.67;97.64
77685;BME280;66844;46.092;18.268;2023-11-21T00:32:10;98830.06;;;9.68;97.82
77685;BME280;66844;46.092;18.268;2023-11-21T00:32:42;98831.72;;;9.71;97.58
77685;BME280;66844;46.092;18.268;2023-11-21T00:33:15;98826.41;;;9.71;97.73
77685;BME280;66844;46.092;18.268;2023-11-21T00:33:47;98824.69;;;9.70;97.75
77685;BME280;66844;46.092;18.268;2023-11-21T00:34:18;98830.56;;;9.75;97.43
77685;BME280;66844;46.092;18.268;2023-11-21T00:34:51;98831.31;;;9.77;97.47
77685;BME280;66844;46.092;18.268;2023-11-21T00:35:23;98825.03;;;9.78;97.23
77685;BME280;66844;46.092;18.268;2023-11-21T00:35:55;98829.22;;;9.82;97.35
77685;BME280;66844;46.092;18.268;2023-11-21T00:36:27;98826.34;;;9.85;96.92
77685;BME280;66844;46.092;18.268;2023-11-21T00:36:59;98826.22;;;9.87;97.02
77685;BME280;66844;46.092;18.268;2023-11-21T00:37:31;98831.38;;;9.90;96.85
77685;BME280;66844;46.092;18.268;2023-11-21T00:38:04;98820.91;;;9.87;96.77
77685;BME280;66844;46.092;18.268;2023-11-21T00:38:36;98817.22;;;9.89;96.75
77685;BME280;66844;46.092;18.268;2023-11-21T00:39:11;98821.56;;;9.90;96.80
77685;BME280;66844;46.092;18.268;2023-11-21T00:39:43;98825.94;;;9.91;96.84
77685;BME280;66844;46.092;18.268;2023-11-21T00:40:15;98815.41;;;9.90;96.90
77685;BME280;66844;46.092;18.268;2023-11-21T00:40:51;98828.59;;;9.91;96.67
77685;BME280;66844;46.092;18.268;2023-11-21T00:41:23;98820.63;;;9.91;96.89
77685;BME280;66844;46.092;18.268;2023-11-21T00:41:55;98819.56;;;9.94;96.57
77685;BME280;66844;46.092;18.268;2023-11-21T00:42:27;98821.28;;;9.95;96.87
77685;BME280;66844;46.092;18.268;2023-11-21T00:42:59;98825.84;;;9.93;96.75
77685;BME280;66844;46.092;18.268;2023-11-21T00:43:32;98814.44;;;9.91;97.02
77685;BME280;66844;46.092;18.268;2023-11-21T00:44:05;98815.09;;;9.94;96.74
77685;BME280;66844;46.092;18.268;2023-11-21T00:44:38;98822.69;;;10.00;96.20
77685;BME280;66844;46.092;18.268;2023-11-21T00:45:11;98813.72;;;10.01;96.09
77685;BME280;66844;46.092;18.268;2023-11-21T00:45:43;98814.72;;;10.00;96.21
77685;BME280;66844;46.092;18.268;2023-11-21T00:46:15;98809.19;;;10.03;95.81
77685;BME280;66844;46.092;18.268;2023-11-21T00:46:47;98823.41;;;10.02;96.07
77685;BME280;66844;46.092;18.268;2023-11-21T00:47:19;98817.38;;;10.00;96.26
77685;BME280;66844;46.092;18.268;2023-11-21T00:47:51;98822.78;;;9.99;96.15
77685;BME280;66844;46.092;18.268;2023-11-21T00:48:23;98811.28;;;9.98;96.21
77685;BME280;66844;46.092;18.268;2023-11-21T00:48:55;98818.41;;;9.98;96.26
77685;BME280;66844;46.092;18.268;2023-11-21T00:49:27;98816.59;;;9.98;96.15
77685;BME280;66844;46.092;18.268;2023-11-21T00:49:59;98815.66;;;9.99;96.25
77685;BME280;66844;46.092;18.268;2023-11-21T00:50:31;98827.88;;;10.02;96.32
77685;BME280;66844;46.092;18.268;2023-11-21T00:51:04;98823.34;;;10.04;96.18
77685;BME280;66844;46.092;18.268;2023-11-21T00:51:37;98817.91;;;10.05;95.85
77685;BME280;66844;46.092;18.268;2023-11-21T00:52:09;98822.19;;;10.08;95.75
77685;BME280;66844;46.092;18.268;2023-11-21T00:52:41;98819.41;;;10.09;95.56
77685;BME280;66844;46.092;18.268;2023-11-21T00:53:13;98815.06;;;10.08;95.58
77685;BME280;66844;46.092;18.268;2023-11-21T00:53:45;98810.41;;;10.12;94.91
77685;BME280;66844;46.092;18.268;2023-11-21T00:54:18;98814.69;;;10.14;94.83
77685;BME280;66844;46.092;18.268;2023-11-21T00:54:50;98813.41;;;10.20;94.63
77685;BME280;66844;46.092;18.268;2023-11-21T00:55:22;98813.53;;;10.18;94.48
77685;BME280;66844;46.092;18.268;2023-11-21T00:55:54;98810.88;;;10.18;94.64
77685;BME280;66844;46.092;18.268;2023-11-21T00:56:28;98801.38;;;10.14;94.61
77685;BME280;66844;46.092;18.268;2023-11-21T00:57:00;98809.06;;;10.19;94.55
77685;BME280;66844;46.092;18.268;2023-11-21T00:57:33;98808.22;;;10.18;94.67
77685;BME280;66844;46.092;18.268;2023-11-21T00:58:05;98806.75;;;10.13;95.35
77685;BME280;66844;46.092;18.268;2023-11-21T00:58:38;98807.91;;;10.09;95.31
77685;BME280;66844;46.092;18.268;2023-11-21T00:59:10;98798.25;;;10.08;95.06
77685;BME280;66844;46.092;18.268;2023-11-21T00:59:42;98801.22;;;10.03;95.34
77685;BME280;66844;46.092;18.268;2023-11-21T01:00:14;98803.56;;;10.08;94.91
77685;BME280;66844;46.092;18.268;2023-11-21T01:00:48;98792.69;;;9.98;95.94
77685;BME280;66844;46.092;18.268;2023-11-21T01:01:21;98798.28;;;9.94;96.52
77685;BME280;66844;46.092;18.268;2023-11-21T01:01:56;98809.13;;;9.91;97.00
77685;BME280;66844;46.092;18.268;2023-11-21T01:02:32;98805.09;;;9.85;96.97
77685;BME280;66844;46.092;18.268;2023-11-21T01:03:04;98813.91;;;9.86;97.26
77685;BME280;66844;46.092;18.268;2023-11-21T01:03:36;98810.41;;;9.85;97.17
77685;BME280;66844;46.092;18.268;2023-11-21T01:04:07;98808.78;;;9.83;97.58
77685;BME280;66844;46.092;18.268;2023-11-21T01:04:39;98801.13;;;9.78;97.44
77685;BME280;66844;46.092;18.268;2023-11-21T01:05:11;98809.09;;;9.78;97.92
77685;BME280;66844;46.092;18.268;2023-11-21T01:05:44;98812.63;;;9.79;97.75
77685;BME280;66844;46.092;18.268;2023-11-21T01:06:17;98809.09;;;9.78;97.76
77685;BME280;66844;46.092;18.268;2023-11-21T01:06:48;98809.09;;;9.78;97.93
77685;BME280;66844;46.092;18.268;2023-11-21T01:07:20;98808.34;;;9.76;98.05
77685;BME280;66844;46.092;18.268;2023-11-21T01:07:52;98803.03;;;9.76;97.65
77685;BME280;66844;46.092;18.268;2023-11-21T01:08:24;98804.00;;;9.75;97.89
77685;BME280;66844;46.092;18.268;2023-11-21T01:08:56;98797.19;;;9.71;98.21
77685;BME280;66844;46.092;18.268;2023-11-21T01:09:28;98790.88;;;9.72;98.32
77685;BME280;66844;46.092;18.268;2023-11-21T01:10:02;98798.56;;;9.77;97.48
77685;BME280;66844;46.092;18.268;2023-11-21T01:10:34;98796.03;;;9.75;97.36
77685;BME280;66844;46.092;18.268;2023-11-21T01:11:06;98790.72;;;9.75;97.69
77685;BME280;66844;46.092;18.268;2023-11-21T01:11:44;98796.84;;;9.75;97.55
77685;BME280;66844;46.092;18.268;2023-11-21T01:12:16;98788.88;;;9.75;97.81
77685;BME280;66844;46.092;18.268;2023-11-21T01:12:49;98787.00;;;9.78;97.31
77685;BME280;66844;46.092;18.268;2023-11-21T01:13:21;98791.03;;;9.83;97.08
77685;BME280;66844;46.092;18.268;2023-11-21T01:13:53;98786.50;;;9.85;96.61
77685;BME280;66844;46.092;18.268;2023-11-21T01:14:25;98791.38;;;9.91;96.21
77685;BME280;66844;46.092;18.268;2023-11-21T01:14:58;98785.78;;;9.96;95.68
77685;BME280;66844;46.092;18.268;2023-11-21T01:15:32;98787.28;;;10.00;95.13
77685;BME280;66844;46.092;18.268;2023-11-21T01:16:05;98786.88;;;10.06;94.90
77685;BME280;66844;46.092;18.268;2023-11-21T01:16:40;98778.81;;;10.07;94.81
77685;BME280;66844;46.092;18.268;2023-11-21T01:17:12;98787.41;;;10.11;94.75
77685;BME280;66844;46.092;18.268;2023-11-21T01:17:44;98783.06;;;10.10;94.77
77685;BME280;66844;46.092;18.268;2023-11-21T01:18:16;98786.28;;;10.15;94.25
77685;BME280;66844;46.092;18.268;2023-11-21T01:18:48;98789.69;;;10.17;94.40
77685;BME280;66844;46.092;18.268;2023-11-21T01:19:20;98785.22;;;10.17;94.29
77685;BME280;66844;46.092;18.268;2023-11-21T01:19:52;98793.13;;;10.19;94.23
77685;BME280;66844;46.092;18.268;2023-11-21T01:20:24;98789.38;;;10.21;93.93
77685;BME280;66844;46.092;18.268;2023-11-21T01:20:56;98791.94;;;10.23;94.13
77685;BME280;66844;46.092;18.268;2023-11-21T01:21:29;98784.81;;;10.23;93.98
77685;BME280;66844;46.092;18.268;2023-11-21T01:22:02;98776.00;;;10.23;93.83
77685;BME280;66844;46.092;18.268;2023-11-21T01:22:34;98792.59;;;10.27;93.96
77685;BME280;66844;46.092;18.268;2023-11-21T01:23:06;98783.00;;;10.24;93.85
77685;BME280;66844;46.092;18.268;2023-11-21T01:23:38;98787.28;;;10.27;93.86
77685;BME280;66844;46.092;18.268;2023-11-21T01:24:09;98784.63;;;10.27;93.76
77685;BME280;66844;46.092;18.268;2023-11-21T01:24:42;98782.91;;;10.26;93.89
77685;BME280;66844;46.092;18.268;2023-11-21T01:25:13;98787.16;;;10.28;93.62
77685;BME280;66844;46.092;18.268;2023-11-21T01:25:46;98783.56;;;10.29;93.33
77685;BME280;66844;46.092;18.268;2023-11-21T01:26:18;98784.50;;;10.28;93.51
77685;BME280;66844;46.092;18.268;2023-11-21T01:26:50;98782.06;;;10.25;93.72
77685;BME280;66844;46.092;18.268;2023-11-21T01:27:22;98779.19;;;10.28;93.46
77685;BME280;66844;46.092;18.268;2023-11-21T01:27:54;98778.31;;;10.28;93.30
77685;BME280;66844;46.092;18.268;2023-11-21T01:28:26;98778.31;;;10.28;93.26
77685;BME280;66844;46.092;18.268;2023-11-21T01:28:58;98776.31;;;10.31;93.20
77685;BME280;66844;46.092;18.268;2023-11-21T01:29:30;98776.31;;;10.31;93.18
77685;BME280;66844;46.092;18.268;2023-11-21T01:30:03;98780.59;;;10.34;93.23
77685;BME280;66844;46.092;18.268;2023-11-21T01:30:36;98783.25;;;10.34;92.93
77685;BME280;66844;46.092;18.268;2023-11-21T01:31:09;98773.56;;;10.33;92.96
77685;BME280;66844;46.092;18.268;2023-11-21T01:31:41;98773.47;;;10.34;92.78
77685;BME280;66844;46.092;18.268;2023-11-21T01:32:13;98772.50;;;10.35;93.01
77685;BME280;66844;46.092;18.268;2023-11-21T01:32:45;98775.06;;;10.37;92.49
77685;BME280;66844;46.092;18.268;2023-11-21T01:33:17;98773.25;;;10.37;92.74
77685;BME280;66844;46.092;18.268;2023-11-21T01:33:50;98764.34;;;10.38;92.53
77685;BME280;66844;46.092;18.268;2023-11-21T01:34:23;98771.44;;;10.38;92.27
77685;BME280;66844;46.092;18.268;2023-11-21T01:34:55;98770.59;;;10.37;91.95
77685;BME280;66844;46.092;18.268;2023-11-21T01:35:27;98766.13;;;10.38;91.99
77685;BME280;66844;46.092;18.268;2023-11-21T01:35:59;98766.13;;;10.38;92.01
77685;BME280;66844;46.092;18.268;2023-11-21T01:36:32;98771.53;;;10.36;92.32
77685;BME280;66844;46.092;18.268;2023-11-21T01:37:05;98766.34;;;10.35;92.53
77685;BME280;66844;46.092;18.268;2023-11-21T01:37:37;98766.44;;;10.33;92.32
77685;BME280;66844;46.092;18.268;2023-11-21T01:38:10;98763.88;;;10.32;92.31
77685;BME280;66844;46.092;18.268;2023-11-21T01:38:42;98764.50;;;10.35;92.16
77685;BME280;66844;46.092;18.268;2023-11-21T01:39:15;98759.31;;;10.34;92.63
77685;BME280;66844;46.092;18.268;2023-11-21T01:39:48;98759.41;;;10.32;92.57
77685;BME280;66844;46.092;18.268;2023-11-21T01:40:20;98759.31;;;10.34;92.26
77685;BME280;66844;46.092;18.268;2023-11-21T01:40:52;98761.22;;;10.32;92.36
77685;BME280;66844;46.092;18.268;2023-11-21T01:41:26;98760.34;;;10.31;92.37
77685;BME280;66844;46.092;18.268;2023-11-21T01:41:58;98765.59;;;10.33;92.52
77685;BME280;66844;46.092;18.268;2023-11-21T01:42:30;98751.44;;;10.32;92.25
77685;BME280;66844;46.092;18.268;2023-11-21T01:43:02;98756.88;;;10.31;92.49
77685;BME280;66844;46.092;18.268;2023-11-21T01:43:37;98758.69;;;10.30;92.40
77685;BME280;66844;46.092;18.268;2023-11-21T01:44:09;98753.44;;;10.29;92.62
77685;BME280;66844;46.092;18.268;2023-11-21T01:44:41;98753.56;;;10.27;92.76
77685;BME280;66844;46.092;18.268;2023-11-21T01:45:14;98751.00;;;10.26;92.90
77685;BME280;66844;46.092;18.268;2023-11-21T01:45:46;98747.28;;;10.28;92.80
77685;BME280;66844;46.092;18.268;2023-11-21T01:46:18;98750.06;;;10.27;92.87
77685;BME280;66844;46.092;18.268;2023-11-21T01:46:51;98751.22;;;10.23;93.10
77685;BME280;66844;46.092;18.268;2023-11-21T01:47:23;98748.56;;;10.23;92.91
77685;BME280;66844;46.092;18.268;2023-11-21T01:47:55;98742.28;;;10.23;93.22
77685;BME280;66844;46.092;18.268;2023-11-21T01:48:28;98746.75;;;10.23;93.24
77685;BME280;66844;46.092;18.268;2023-11-21T01:49:01;98744.09;;;10.23;92.97
77685;BME280;66844;46.092;18.268;2023-11-21T01:49:33;98745.78;;;10.24;92.85
77685;BME280;66844;46.092;18.268;2023-11-21T01:50:09;98743.47;;;10.19;92.84
77685;BME280;66844;46.092;18.268;2023-11-21T01:50:45;98745.91;;;10.23;93.06
77685;BME280;66844;46.092;18.268;2023-11-21T01:51:17;98742.50;;;10.20;93.46
77685;BME280;66844;46.092;18.268;2023-11-21T01:51:50;98741.53;;;10.21;93.30
77685;BME280;66844;46.092;18.268;2023-11-21T01:52:23;98743.25;;;10.23;93.24
77685;BME280;66844;46.092;18.268;2023-11-21T01:52:57;98739.81;;;10.20;93.04
77685;BME280;66844;46.092;18.268;2023-11-21T01:53:29;98741.63;;;10.20;93.10
77685;BME280;66844;46.092;18.268;2023-11-21T01:54:02;98739.09;;;10.18;93.34
77685;BME280;66844;46.092;18.268;2023-11-21T01:54:47;98740.81;;;10.19;93.18
77685;BME280;66844;46.092;18.268;2023-11-21T01:55:19;98741.53;;;10.21;93.09
77685;BME280;66844;46.092;18.268;2023-11-21T01:55:59;98743.25;;;10.23;93.03
77685;BME280;66844;46.092;18.268;2023-11-21T01:56:32;98735.50;;;10.19;93.29
77685;BME280;66844;46.092;18.268;2023-11-21T01:57:04;98745.16;;;10.20;93.30
77685;BME280;66844;46.092;18.268;2023-11-21T01:57:38;98739.81;;;10.20;93.35
77685;BME280;66844;46.092;18.268;2023-11-21T01:58:11;98735.69;;;10.16;93.41
77685;BME280;66844;46.092;18.268;2023-11-21T01:58:44;98745.28;;;10.19;93.69
77685;BME280;66844;46.092;18.268;2023-11-21T01:59:20;98745.16;;;10.20;93.39
77685;BME280;66844;46.092;18.268;2023-11-21T01:59:56;98736.22;;;10.21;93.63
77685;BME280;66844;46.092;18.268;2023-11-21T02:00:30;98741.75;;;10.18;93.46
77685;BME280;66844;46.092;18.268;2023-11-21T02:01:03;98742.59;;;10.19;93.49
77685;BME280;66844;46.092;18.268;2023-11-21T02:01:35;98746.84;;;10.21;93.56
77685;BME280;66844;46.092;18.268;2023-11-21T02:02:08;98739.94;;;10.19;93.60
77685;BME280;66844;46.092;18.268;2023-11-21T02:02:47;98735.59;;;10.18;93.63
77685;BME280;66844;46.092;18.268;2023-11-21T02:03:20;98738.47;;;10.15;93.57
77685;BME280;66844;46.092;18.268;2023-11-21T02:03:52;98743.66;;;10.16;93.53
77685;BME280;66844;46.092;18.268;2023-11-21T02:04:24;98744.41;;;10.18;93.81
77685;BME280;66844;46.092;18.268;2023-11-21T02:04:57;98745.16;;;10.20;93.83
77685;BME280;66844;46.092;18.268;2023-11-21T02:05:29;98740.16;;;10.16;93.61
77685;BME280;66844;46.092;18.268;2023-11-21T02:06:01;98741.63;;;10.20;93.46
77685;BME280;66844;46.092;18.268;2023-11-21T02:06:33;98735.38;;;10.21;93.82
77685;BME280;66844;46.092;18.268;2023-11-21T02:07:05;98746.84;;;10.21;93.40
77685;BME280;66844;46.092;18.268;2023-11-21T02:07:38;98738.88;;;10.21;93.28
77685;BME280;66844;46.092;18.268;2023-11-21T02:08:10;98737.28;;;10.19;93.31
77685;BME280;66844;46.092;18.268;2023-11-21T02:08:43;98743.34;;;10.21;93.13
77685;BME280;66844;46.092;18.268;2023-11-21T02:09:16;98744.19;;;10.21;93.32
77685;BME280;66844;46.092;18.268;2023-11-21T02:09:49;98748.66;;;10.21;93.50
77685;BME280;66844;46.092;18.268;2023-11-21T02:10:21;98738.97;;;10.20;93.69
77685;BME280;66844;46.092;18.268;2023-11-21T02:10:55;98743.47;;;10.19;93.59
77685;BME280;66844;46.092;18.268;2023-11-21T02:11:29;98741.63;;;10.20;93.47
77685;BME280;66844;46.092;18.268;2023-11-21T02:12:01;98741.63;;;10.20;93.81
77685;BME280;66844;46.092;18.268;2023-11-21T02:12:35;98738.25;;;10.18;93.92
77685;BME280;66844;46.092;18.268;2023-11-21T02:13:07;98732.19;;;10.16;93.94
77685;BME280;66844;46.092;18.268;2023-11-21T02:13:39;98730.25;;;10.18;93.81
77685;BME280;66844;46.092;18.268;2023-11-21T02:14:14;98739.19;;;10.17;93.98
77685;BME280;66844;46.092;18.268;2023-11-21T02:14:46;98726.97;;;10.14;93.94
77685;BME280;66844;46.092;18.268;2023-11-21T02:15:20;98726.03;;;10.15;94.04
77685;BME280;66844;46.092;18.268;2023-11-21T02:15:52;98726.97;;;10.14;94.33
77685;BME280;66844;46.092;18.268;2023-11-21T02:16:26;98732.34;;;10.13;94.11
77685;BME280;66844;46.092;18.268;2023-11-21T02:16:59;98729.63;;;10.14;93.90
77685;BME280;66844;46.092;18.268;2023-11-21T02:17:32;98724.38;;;10.13;94.13
77685;BME280;66844;46.092;18.268;2023-11-21T02:18:05;98730.66;;;10.12;94.08
77685;BME280;66844;46.092;18.268;2023-11-21T02:18:39;98729.81;;;10.11;94.22
77685;BME280;66844;46.092;18.268;2023-11-21T02:19:18;98721.94;;;10.10;94.11
77685;BME280;66844;46.092;18.268;2023-11-21T02:20:02;98729.91;;;10.10;94.18
77685;BME280;66844;46.092;18.268;2023-11-21T02:20:34;98723.63;;;10.11;93.95
77685;BME280;66844;46.092;18.268;2023-11-21T02:21:08;98725.34;;;10.12;94.07
77685;BME280;66844;46.092;18.268;2023-11-21T02:21:42;98719.38;;;10.08;93.93
77685;BME280;66844;46.092;18.268;2023-11-21T02:22:15;98721.06;;;10.09;93.80
77685;BME280;66844;46.092;18.268;2023-11-21T02:22:52;98717.78;;;10.06;93.63
77685;BME280;66844;46.092;18.268;2023-11-21T02:23:30;98721.28;;;10.06;93.72
77685;BME280;66844;46.092;18.268;2023-11-21T02:24:02;98724.06;;;10.05;94.05
77685;BME280;66844;46.092;18.268;2023-11-21T02:24:34;98725.88;;;10.04;93.59
77685;BME280;66844;46.092;18.268;2023-11-21T02:25:06;98724.88;;;10.05;94.07
77685;BME280;66844;46.092;18.268;2023-11-21T02:25:39;98729.25;;;10.06;93.76
77685;BME280;66844;46.092;18.268;2023-11-21T02:26:11;98738.16;;;10.05;93.68
77685;BME280;66844;46.092;18.268;2023-11-21T02:26:43;98725.66;;;10.07;93.39
77685;BME280;66844;46.092;18.268;2023-11-21T02:27:15;98728.41;;;10.06;93.62
77685;BME280;66844;46.092;18.268;2023-11-21T02:27:52;98729.47;;;10.03;93.76
77685;BME280;66844;46.092;18.268;2023-11-21T02:28:26;98732.97;;;10.04;93.61
77685;BME280;66844;46.092;18.268;2023-11-21T02:28:58;98733.94;;;10.03;93.71
77685;BME280;66844;46.092;18.268;2023-11-21T02:29:30;98733.84;;;10.04;93.87
77685;BME280;66844;46.092;18.268;2023-11-21T02:30:02;98732.13;;;10.03;93.47
77685;BME280;66844;46.092;18.268;2023-11-21T02:30:36;98732.03;;;10.05;93.52
77685;BME280;66844;46.092;18.268;2023-11-21T02:31:08;98735.63;;;10.04;93.60
77685;BME280;66844;46.092;18.268;2023-11-21T02:31:40;98726.72;;;10.05;93.59
77685;BME280;66844;46.092;18.268;2023-11-21T02:32:20;98721.28;;;10.06;93.36
77685;BME280;66844;46.092;18.268;2023-11-21T02:32:55;98735.72;;;10.02;93.47
77685;BME280;66844;46.092;18.268;2023-11-21T02:33:29;98733.06;;;10.02;93.47
77685;BME280;66844;46.092;18.268;2023-11-21T02:34:00;98731.28;;;10.03;93.20
77685;BME280;66844;46.092;18.268;2023-11-21T02:34:32;98731.28;;;10.03;93.20
77685;BME280;66844;46.092;18.268;2023-11-21T02:35:05;98730.31;;;10.04;93.41
77685;BME280;66844;46.092;18.268;2023-11-21T02:35:39;98736.50;;;10.04;93.43
77685;BME280;66844;46.092;18.268;2023-11-21T02:36:11;98735.63;;;10.04;93.62
77685;BME280;66844;46.092;18.268;2023-11-21T02:36:46;98734.13;;;10.00;93.72
77685;BME280;66844;46.092;18.268;2023-11-21T02:37:21;98735.84;;;10.01;93.89
77685;BME280;66844;46.092;18.268;2023-11-21T02:37:54;98739.03;;;10.06;93.58
77685;BME280;66844;46.092;18.268;2023-11-21T02:38:26;98726.72;;;10.05;93.40
77685;BME280;66844;46.092;18.268;2023-11-21T02:38:58;98740.75;;;10.07;93.66
77685;BME280;66844;46.092;18.268;2023-11-21T02:39:30;98735.22;;;10.10;93.42
77685;BME280;66844;46.092;18.268;2023-11-21T02:40:02;98730.03;;;10.08;93.33
77685;BME280;66844;46.092;18.268;2023-11-21T02:40:38;98729.16;;;10.08;93.44
77685;BME280;66844;46.092;18.268;2023-11-21T02:41:10;98724.88;;;10.05;93.47
77685;BME280;66844;46.092;18.268;2023-11-21T02:41:43;98726.50;;;10.08;93.57
77685;BME280;66844;46.092;18.268;2023-11-21T02:42:15;98723.94;;;10.06;93.39
77685;BME280;66844;46.092;18.268;2023-11-21T02:42:47;98723.94;;;10.06;93.35
77685;BME280;66844;46.092;18.268;2023-11-21T02:43:19;98714.16;;;10.07;93.11
77685;BME280;66844;46.092;18.268;2023-11-21T02:43:51;98724.72;;;10.08;92.86
77685;BME280;66844;46.092;18.268;2023-11-21T02:44:23;98727.38;;;10.08;93.08
77685;BME280;66844;46.092;18.268;2023-11-21T02:44:55;98717.69;;;10.07;92.64
77685;BME280;66844;46.092;18.268;2023-11-21T02:45:28;98724.06;;;10.05;92.87
77685;BME280;66844;46.092;18.268;2023-11-21T02:46:00;98726.72;;;10.05;92.76
77685;BME280;66844;46.092;18.268;2023-11-21T02:46:36;98720.44;;;10.06;92.67
77685;BME280;66844;46.092;18.268;2023-11-21T02:47:08;98715.97;;;10.06;92.69
77685;BME280;66844;46.092;18.268;2023-11-21T02:47:40;98722.13;;;10.07;92.62
77685;BME280;66844;46.092;18.268;2023-11-21T02:48:12;98720.50;;;9.92;92.64
77685;BME280;66844;46.092;18.268;2023-11-21T02:48:44;98728.69;;;9.89;93.01
77685;BME280;66844;46.092;18.268;2023-11-21T02:49:16;98721.47;;;9.91;93.15
77685;BME280;66844;46.092;18.268;2023-11-21T02:49:49;98719.97;;;9.87;93.14
77685;BME280;66844;46.092;18.268;2023-11-21T02:50:22;98717.94;;;9.90;93.22
77685;BME280;66844;46.092;18.268;2023-11-21T02:50:54;98723.38;;;9.89;93.47
77685;BME280;66844;46.092;18.268;2023-11-21T02:51:26;98720.72;;;9.89;93.71
77685;BME280;66844;46.092;18.268;2023-11-21T02:51:58;98717.13;;;9.90;93.60
77685;BME280;66844;46.092;18.268;2023-11-21T02:52:30;98722.53;;;9.88;93.66